This is the latest recevied weather packets stored in our database for station/object PY2UTU-WX. If no packets are shown the sender has not sent any weather packets the latest 1 day(s).
| Time | Temp. | Humidity | Pressure | Rain* | Wind** | Luminosity | Snow |
|---|---|---|---|---|---|---|---|
| 1778100146 | 25.56° C | 98% | 925.4 hPa | - | - | - | - |
| 1778096546 | 28.33° C | 77% | 925 hPa | - | - | - | - |
| 1778091146 | 28.33° C | 75% | 925.1 hPa | - | - | - | - |
| 1778086646 | 28.33° C | 83% | 925.8 hPa | - | - | - | - |
| 1778085746 | 28.33° C | 84% | 926 hPa | - | - | - | - |
| 1778083946 | 27.78° C | 84% | 926.4 hPa | - | - | - | - |
| 1778083046 | 27.78° C | 84% | 926.7 hPa | - | - | - | - |
| 1778082146 | 28.33° C | 87% | 927 hPa | - | - | - | - |
| 1778081246 | 27.78° C | 87% | 927.2 hPa | - | - | - | - |
| 1778080346 | 27.78° C | 85% | 927.4 hPa | - | - | - | - |
| 1778077646 | 26.67° C | 90% | 928 hPa | - | - | - | - |
| 1778074946 | 26.11° C | 98% | 928.7 hPa | - | - | - | - |
| 1778074046 | 25.56° C | 98% | 928.7 hPa | - | - | - | - |
| 1778072246 | 25° C | 98% | 928.9 hPa | - | - | - | - |
| 1778071346 | 25° C | 98% | 928.9 hPa | - | - | - | - |
| 1778070446 | 25° C | 98% | 928.8 hPa | - | - | - | - |
| 1778069546 | 24.44° C | 98% | 928.9 hPa | - | - | - | - |
| 1778068646 | 23.33° C | 98% | 928.8 hPa | - | - | - | - |
| 1778067746 | 22.78° C | 98% | 928.5 hPa | - | - | - | - |
| 1778066846 | 22.78° C | 98% | 928.5 hPa | - | - | - | - |
| 1778065946 | 22.22° C | 98% | 928.4 hPa | - | - | - | - |
| 1778065046 | 21.67° C | 98% | 928.1 hPa | - | - | - | - |
| 1778064146 | 21.67° C | 98% | 927.9 hPa | - | - | - | - |
| 1778063246 | 21.67° C | 98% | 927.9 hPa | - | - | - | - |
| 1778062346 | 21.11° C | 98% | 927.8 hPa | - | - | - | - |
* Rain since midnight (hover to see other rain measurements)
** Current wind speed in m/s (hover to see current wind gust speed)